Time;durP1;ratioP1;P1;durP2;ratioP2;P2;SDS_P1;SDS_P2;PMS_P1;PMS_P2;Temp;Humidity;BMP_temperature;BMP_pressure;BME280_temperature;BME280_humidity;BME280_pressure;Samples;Min_cycle;Max_cycle;Signal;HPM_P1;HPM_P2
2021/10/27 00:01:35;;;;;;;15.68;10.77;;;16.70;92.10;;;;;;4175239;28;20085;-59
2021/10/27 00:03:58;;;;;;;13.10;10.52;;;16.80;92.10;;;;;;4174380;28;20045;-58
2021/10/27 00:06:21;;;;;;;15.20;11.70;;;16.80;92.20;;;;;;4174558;28;20837;-59
2021/10/27 00:08:44;;;;;;;15.43;10.90;;;16.80;92.20;;;;;;4180814;28;20098;-59
2021/10/27 00:11:06;;;;;;;13.05;11.23;;;16.70;92.20;;;;;;4191334;28;20056;-59
2021/10/27 00:13:28;;;;;;;15.25;11.45;;;16.70;92.20;;;;;;4191148;28;20052;-59
2021/10/27 00:15:50;;;;;;;16.17;11.10;;;16.80;92.30;;;;;;4183189;28;20055;-59
2021/10/27 00:18:12;;;;;;;12.90;10.70;;;16.80;92.20;;;;;;4179609;28;20037;-59
2021/10/27 00:20:34;;;;;;;14.70;11.60;;;16.70;92.30;;;;;;4174492;28;20053;-59
2021/10/27 00:22:58;;;;;;;16.75;11.88;;;16.70;92.30;;;;;;4174628;28;20056;-58
2021/10/27 00:25:20;;;;;;;15.98;10.23;;;16.70;92.30;;;;;;4174556;28;20102;-59
2021/10/27 00:27:42;;;;;;;14.70;10.32;;;16.70;92.30;;;;;;4174543;28;20045;-59
2021/10/27 00:30:06;;;;;;;16.48;10.80;;;16.70;92.30;;;;;;4174202;28;20135;-58
2021/10/27 00:32:28;;;;;;;13.73;10.05;;;16.70;92.30;;;;;;4174520;28;20055;-59
2021/10/27 00:34:50;;;;;;;15.48;12.13;;;16.70;92.40;;;;;;4173706;28;20478;-59
2021/10/27 00:37:12;;;;;;;16.08;10.30;;;16.70;92.40;;;;;;4191121;28;20482;-59
2021/10/27 00:39:36;;;;;;;17.33;11.25;;;16.70;92.40;;;;;;4189213;28;20151;-59
2021/10/27 00:41:58;;;;;;;14.65;10.07;;;16.70;92.80;;;;;;4177067;28;20067;-59
2021/10/27 00:44:22;;;;;;;15.70;10.80;;;16.70;92.40;;;;;;4174222;28;20053;-59
2021/10/27 00:46:44;;;;;;;14.85;9.73;;;16.70;92.50;;;;;;4174306;28;20049;-59
2021/10/27 00:49:06;;;;;;;15.32;10.68;;;16.70;92.40;;;;;;4174225;28;20045;-59
2021/10/27 00:51:28;;;;;;;15.07;10.43;;;16.70;92.50;;;;;;4174101;28;20419;-59
2021/10/27 00:53:51;;;;;;;13.20;10.57;;;16.70;92.50;;;;;;4179061;28;20055;-59
2021/10/27 00:56:15;;;;;;;12.25;9.20;;;16.70;92.60;;;;;;4193663;28;20054;-58
2021/10/27 00:58:37;;;;;;;18.30;9.85;;;16.70;92.50;;;;;;4193735;28;20115;-59
2021/10/27 01:01:00;;;;;;;14.00;9.85;;;16.70;92.60;;;;;;4193915;28;20094;-59
2021/10/27 01:03:22;;;;;;;15.45;9.35;;;16.70;92.60;;;;;;4193695;28;20044;-59
2021/10/27 01:05:44;;;;;;;14.88;9.90;;;16.70;92.60;;;;;;4193711;28;20089;-59
2021/10/27 01:08:07;;;;;;;14.55;8.45;;;16.70;92.60;;;;;;4184603;28;20049;-59
2021/10/27 01:10:29;;;;;;;10.32;9.10;;;16.70;92.60;;;;;;4177024;28;20048;-59
2021/10/27 01:12:52;;;;;;;13.93;9.10;;;16.70;92.70;;;;;;4177284;28;20461;-59
2021/10/27 01:15:15;;;;;;;11.75;8.63;;;16.70;92.70;;;;;;4186570;28;20044;-58
2021/10/27 01:17:37;;;;;;;14.70;8.43;;;16.70;92.80;;;;;;4160556;28;20613;-58
2021/10/27 01:20:02;;;;;;;11.50;8.75;;;16.70;92.70;;;;;;4160633;28;20488;-59
2021/10/27 01:22:25;;;;;;;13.55;9.88;;;16.70;92.80;;;;;;4168149;28;20475;-59
2021/10/27 01:24:47;;;;;;;15.07;8.90;;;16.70;92.70;;;;;;4193534;28;20036;-59
2021/10/27 01:27:11;;;;;;;13.40;8.98;;;16.60;92.80;;;;;;4190408;28;20453;-59
2021/10/27 01:29:34;;;;;;;10.02;7.82;;;16.70;92.80;;;;;;4177081;28;20049;-58
2021/10/27 01:31:56;;;;;;;16.15;8.43;;;16.70;92.80;;;;;;4176881;28;20137;-59
2021/10/27 01:34:18;;;;;;;12.73;7.72;;;16.70;92.80;;;;;;4180291;28;20582;-59
2021/10/27 01:36:42;;;;;;;11.90;7.53;;;16.70;92.80;;;;;;4182847;28;20061;-58
2021/10/27 01:39:04;;;;;;;11.32;7.85;;;16.70;92.80;;;;;;4176457;28;20049;-59
2021/10/27 01:41:27;;;;;;;12.75;7.38;;;16.70;92.80;;;;;;4175448;28;20090;-59
2021/10/27 01:43:51;;;;;;;11.80;7.63;;;16.70;92.80;;;;;;4176614;28;20049;-59
2021/10/27 01:46:13;;;;;;;11.35;7.05;;;16.70;93.00;;;;;;4176586;28;20056;-59
2021/10/27 01:48:36;;;;;;;10.00;7.88;;;16.70;92.80;;;;;;4176647;28;20060;-59
2021/10/27 01:50:58;;;;;;;12.32;7.50;;;16.70;92.80;;;;;;4176495;28;20049;-59
2021/10/27 01:53:22;;;;;;;12.80;6.75;;;16.60;92.90;;;;;;4179627;28;20055;-59
2021/10/27 01:55:44;;;;;;;9.00;6.40;;;16.60;92.90;;;;;;4176436;28;20067;-59
2021/10/27 01:58:07;;;;;;;8.65;6.90;;;16.60;92.90;;;;;;4176376;28;20045;-59
2021/10/27 02:00:29;;;;;;;11.43;6.75;;;16.70;93.30;;;;;;4176543;28;20152;-59
2021/10/27 02:02:51;;;;;;;11.07;6.75;;;16.60;92.90;;;;;;4176177;28;20082;-59
2021/10/27 02:05:13;;;;;;;11.68;6.07;;;16.70;92.90;;;;;;4158993;28;20053;-59
2021/10/27 02:07:35;;;;;;;12.48;6.43;;;16.70;92.90;;;;;;4159453;28;20053;-59
2021/10/27 02:09:58;;;;;;;9.88;6.13;;;16.60;92.90;;;;;;4159510;28;20060;-59
2021/10/27 02:12:21;;;;;;;8.93;5.25;;;16.70;93.00;;;;;;4159671;28;20053;-59
2021/10/27 02:14:43;;;;;;;13.25;5.90;;;16.60;92.90;;;;;;4192807;28;20123;-59
2021/10/27 02:17:06;;;;;;;12.10;5.97;;;16.60;92.90;;;;;;4177353;28;20045;-59
2021/10/27 02:19:28;;;;;;;12.18;6.03;;;16.70;93.00;;;;;;4159553;28;20511;-58
2021/10/27 02:21:50;;;;;;;8.32;4.97;;;16.60;93.00;;;;;;4159487;28;20109;-58
2021/10/27 02:24:12;;;;;;;10.55;5.65;;;16.60;92.90;;;;;;4159369;28;20056;-59
2021/10/27 02:26:36;;;;;;;10.75;5.65;;;16.70;93.00;;;;;;4189079;28;20053;-59
2021/10/27 02:28:58;;;;;;;13.18;5.60;;;16.70;93.00;;;;;;4175718;28;20049;-59
2021/10/27 02:31:20;;;;;;;9.55;5.70;;;16.60;93.00;;;;;;4179668;28;20579;-59
2021/10/27 02:33:43;;;;;;;9.70;5.28;;;16.60;93.10;;;;;;4192426;28;20060;-59
2021/10/27 02:36:05;;;;;;;11.90;5.70;;;16.60;93.10;;;;;;4192576;28;20045;-59
2021/10/27 02:38:34;;;;;;;11.65;5.80;;;16.60;93.10;;;;;;4191914;28;20047;-59
2021/10/27 02:40:57;;;;;;;10.88;5.30;;;16.60;93.00;;;;;;4187122;28;20056;-59
2021/10/27 02:43:20;;;;;;;10.50;5.53;;;16.60;93.50;;;;;;4175755;28;20617;-59
2021/10/27 02:45:43;;;;;;;12.35;5.50;;;16.60;93.20;;;;;;4159310;28;20041;-59
2021/10/27 02:48:06;;;;;;;13.88;5.78;;;16.60;93.10;;;;;;4159040;28;20412;-59
2021/10/27 02:50:28;;;;;;;8.15;5.38;;;16.70;93.20;;;;;;4158873;28;20146;-59
2021/10/27 02:52:50;;;;;;;9.40;5.97;;;16.60;93.20;;;;;;4142637;28;20065;-59
2021/10/27 02:55:13;;;;;;;11.75;6.30;;;16.60;93.10;;;;;;4143114;28;20100;-58
2021/10/27 02:57:35;;;;;;;10.35;5.57;;;16.60;93.10;;;;;;4142745;28;20054;-61
2021/10/27 02:59:59;;;;;;;12.30;6.43;;;16.60;93.10;;;;;;4158780;28;20559;-58
2021/10/27 03:02:21;;;;;;;10.73;5.95;;;16.70;93.20;;;;;;4191431;28;20051;-58
2021/10/27 03:04:43;;;;;;;10.35;5.80;;;16.60;93.20;;;;;;4191081;28;20048;-59
2021/10/27 03:07:05;;;;;;;12.05;6.15;;;16.60;93.20;;;;;;4191439;28;20037;-59
2021/10/27 03:09:28;;;;;;;12.43;6.55;;;16.70;93.20;;;;;;4191502;28;20044;-59
2021/10/27 03:11:51;;;;;;;10.23;5.75;;;16.60;93.10;;;;;;4191039;28;20071;-59
2021/10/27 03:14:13;;;;;;;9.10;5.70;;;16.60;93.20;;;;;;4191688;28;20113;-59
2021/10/27 03:16:37;;;;;;;9.30;5.72;;;16.60;93.20;;;;;;4189320;28;20137;-59
2021/10/27 03:18:59;;;;;;;8.05;5.82;;;16.60;93.30;;;;;;4174921;28;20061;-59
2021/10/27 03:21:21;;;;;;;9.07;5.53;;;16.60;93.20;;;;;;4158693;28;20050;-59
2021/10/27 03:23:43;;;;;;;10.70;5.60;;;16.60;93.30;;;;;;4158601;28;20057;-59
2021/10/27 03:26:06;;;;;;;13.38;5.82;;;16.60;93.20;;;;;;4184225;28;20051;-59
2021/10/27 03:28:28;;;;;;;11.63;6.25;;;16.60;93.20;;;;;;4191530;28;20049;-58
2021/10/27 03:30:51;;;;;;;11.18;5.25;;;16.60;93.30;;;;;;4190887;28;20091;-59
2021/10/27 03:33:14;;;;;;;14.43;5.88;;;16.60;93.30;;;;;;4191396;28;20052;-59
2021/10/27 03:35:36;;;;;;;13.13;5.28;;;16.60;93.30;;;;;;4191212;28;20048;-59
2021/10/27 03:37:59;;;;;;;9.45;4.80;;;16.60;93.20;;;;;;4191016;28;20049;-59
2021/10/27 03:40:21;;;;;;;10.98;5.53;;;16.60;93.30;;;;;;4191014;28;20067;-58
2021/10/27 03:42:44;;;;;;;10.65;5.05;;;16.60;93.30;;;;;;4191349;28;20048;-59
2021/10/27 03:45:06;;;;;;;12.77;5.35;;;16.60;93.30;;;;;;4160177;28;20122;-59
2021/10/27 03:47:29;;;;;;;9.48;4.43;;;16.60;93.40;;;;;;4191007;28;20138;-60
2021/10/27 03:49:52;;;;;;;10.30;4.93;;;16.60;93.40;;;;;;4191501;28;20414;-59
2021/10/27 03:52:15;;;;;;;8.13;4.45;;;16.60;93.40;;;;;;4191188;28;20060;-59
2021/10/27 03:54:37;;;;;;;11.43;5.10;;;16.60;93.30;;;;;;4191111;28;20651;-59
2021/10/27 03:56:59;;;;;;;8.77;4.40;;;16.60;93.30;;;;;;4191335;28;20055;-59
2021/10/27 03:59:21;;;;;;;9.63;3.85;;;16.60;93.30;;;;;;4191189;28;20128;-58
2021/10/27 04:01:43;;;;;;;7.72;3.58;;;16.60;93.40;;;;;;4191108;28;20059;-59
2021/10/27 04:04:06;;;;;;;6.65;3.35;;;16.60;93.40;;;;;;4179823;28;20041;-59
2021/10/27 04:06:29;;;;;;;6.50;3.17;;;16.60;93.40;;;;;;4174389;28;20051;-59
2021/10/27 04:08:52;;;;;;;5.53;3.10;;;16.60;93.40;;;;;;4174748;28;20408;-59
2021/10/27 04:11:14;;;;;;;5.68;2.95;;;16.60;93.30;;;;;;4185416;28;20146;-58
2021/10/27 04:13:37;;;;;;;6.43;2.35;;;16.60;93.20;;;;;;4191249;28;20057;-59
2021/10/27 04:15:59;;;;;;;5.32;2.63;;;16.60;93.20;;;;;;4191369;28;20048;-59
2021/10/27 04:18:21;;;;;;;7.80;2.75;;;16.60;93.20;;;;;;4191207;28;20055;-59
2021/10/27 04:20:43;;;;;;;4.72;2.13;;;16.60;93.20;;;;;;4191246;28;20052;-59
2021/10/27 04:23:08;;;;;;;7.07;2.45;;;16.60;93.20;;;;;;4176629;28;20461;-59
2021/10/27 04:25:31;;;;;;;5.82;2.83;;;16.60;93.20;;;;;;4174239;28;20048;-59
2021/10/27 04:27:53;;;;;;;9.50;2.95;;;16.60;93.20;;;;;;4174748;28;20597;-58
2021/10/27 04:30:15;;;;;;;6.05;2.58;;;16.60;93.50;;;;;;4177774;28;20612;-59
2021/10/27 04:32:38;;;;;;;15.35;2.80;;;16.60;93.20;;;;;;4177383;28;20399;-59
2021/10/27 04:35:01;;;;;;;8.50;2.80;;;16.60;93.20;;;;;;4177605;28;20041;-59
2021/10/27 04:37:24;;;;;;;7.72;2.20;;;16.60;93.10;;;;;;4177945;28;20488;-58
2021/10/27 04:39:48;;;;;;;6.38;2.30;;;16.60;93.20;;;;;;4180964;28;20041;-59
2021/10/27 04:42:10;;;;;;;6.78;3.00;;;16.60;93.20;;;;;;4193231;28;20056;-59
2021/10/27 04:44:32;;;;;;;3.20;1.95;;;16.60;93.20;;;;;;4193788;28;20113;-59
2021/10/27 04:46:56;;;;;;;6.68;2.53;;;16.60;93.20;;;;;;4194041;28;20414;-59
2021/10/27 04:49:19;;;;;;;10.02;2.78;;;16.60;93.20;;;;;;4193852;28;20491;-59
2021/10/27 04:51:41;;;;;;;9.07;2.72;;;16.60;93.20;;;;;;4194266;28;20510;-59
2021/10/27 04:54:03;;;;;;;8.18;2.65;;;16.60;93.20;;;;;;4192980;28;20082;-59
2021/10/27 04:56:27;;;;;;;8.40;3.00;;;16.60;93.20;;;;;;4175944;28;20044;-59
2021/10/27 04:58:49;;;;;;;8.30;2.72;;;16.60;93.30;;;;;;4160921;28;20046;-59
2021/10/27 05:01:11;;;;;;;7.85;3.10;;;16.60;93.30;;;;;;4158839;28;20099;-58
2021/10/27 05:03:36;;;;;;;9.00;2.40;;;16.60;93.20;;;;;;4160834;28;20054;-58
2021/10/27 05:05:59;;;;;;;8.10;3.05;;;16.60;93.40;;;;;;4160729;28;20049;-59
2021/10/27 05:08:23;;;;;;;11.75;3.38;;;16.60;93.40;;;;;;4160198;28;20071;-58
2021/10/27 05:10:46;;;;;;;8.80;2.97;;;16.60;93.40;;;;;;4193999;28;20556;-59
2021/10/27 05:13:09;;;;;;;6.38;2.20;;;16.60;93.30;;;;;;4193296;28;20510;-58
2021/10/27 05:15:31;;;;;;;9.30;2.67;;;16.60;93.30;;;;;;4193672;28;20141;-59
2021/10/27 05:17:53;;;;;;;9.70;3.03;;;16.60;93.30;;;;;;4193536;28;20136;-59
2021/10/27 05:20:15;;;;;;;9.30;2.70;;;16.60;93.40;;;;;;4185646;28;20735;-59
2021/10/27 05:22:37;;;;;;;8.93;2.80;;;16.60;93.40;;;;;;4176958;28;20056;-59
2021/10/27 05:25:00;;;;;;;7.00;2.60;;;16.70;93.60;;;;;;4178325;28;20152;-59
2021/10/27 05:27:22;;;;;;;6.47;2.50;;;16.70;93.60;;;;;;4177113;28;20428;-59
2021/10/27 05:29:46;;;;;;;11.50;3.13;;;16.70;93.50;;;;;;4185999;28;20131;-59
2021/10/27 05:32:12;;;;;;;8.05;3.03;;;16.70;93.50;;;;;;4191828;28;20056;-59
2021/10/27 05:34:34;;;;;;;10.50;2.97;;;16.70;93.50;;;;;;4193173;28;20044;-59
2021/10/27 05:36:56;;;;;;;9.57;2.97;;;16.70;93.40;;;;;;4189403;28;20094;-59
2021/10/27 05:39:19;;;;;;;7.25;2.95;;;16.70;93.40;;;;;;4176050;28;20053;-59
2021/10/27 05:41:42;;;;;;;3.90;2.15;;;16.60;93.40;;;;;;4176097;28;20049;-59
2021/10/27 05:44:04;;;;;;;8.27;2.90;;;16.70;93.40;;;;;;4160086;28;20081;-59
2021/10/27 05:46:28;;;;;;;12.00;3.30;;;16.60;93.40;;;;;;4159905;28;20053;-59
2021/10/27 05:48:59;;;;;;;8.73;3.00;;;16.70;93.40;;;;;;4143986;28;20074;-57
2021/10/27 05:51:34;;;;;;;14.20;3.20;;;16.70;93.40;;;;;;4143664;28;20590;-58
2021/10/27 05:56:35;;;;;;;11.23;3.10;;;16.60;93.50;;;;;;4159851;28;20424;-59
2021/10/27 05:58:58;;;;;;;7.78;2.88;;;16.70;93.80;;;;;;4159771;28;20494;-59
2021/10/27 06:01:21;;;;;;;8.75;3.55;;;16.70;94.20;;;;;;4159541;28;20056;-58
2021/10/27 06:03:45;;;;;;;7.00;2.58;;;16.70;94.10;;;;;;4159536;28;20049;-58
2021/10/27 06:06:08;;;;;;;7.13;3.25;;;16.60;93.90;;;;;;4158950;28;20416;-59
2021/10/27 06:08:30;;;;;;;13.10;3.25;;;16.70;93.90;;;;;;4159581;28;20053;-55
2021/10/27 06:10:58;;;;;;;7.90;3.28;;;16.60;93.80;;;;;;4159667;28;20049;-58
2021/10/27 06:13:20;;;;;;;16.95;4.82;;;16.70;93.80;;;;;;4147097;28;20042;-58
2021/10/27 06:15:43;;;;;;;9.25;3.55;;;16.70;93.80;;;;;;4159447;28;20492;-59
2021/10/27 06:18:06;;;;;;;8.55;3.42;;;16.70;93.70;;;;;;4142834;28;20103;-58
2021/10/27 06:20:30;;;;;;;10.15;3.47;;;16.70;93.70;;;;;;4143178;28;20517;-58
2021/10/27 06:22:52;;;;;;;13.43;3.42;;;16.60;93.70;;;;;;4143344;28;20054;-59
2021/10/27 06:25:15;;;;;;;13.57;3.10;;;16.60;93.60;;;;;;4143324;28;20096;-59
2021/10/27 06:27:38;;;;;;;7.20;2.65;;;16.60;93.60;;;;;;4143198;28;20075;-59
2021/10/27 06:30:05;;;;;;;8.80;3.10;;;16.70;93.60;;;;;;4143367;28;20497;-59
2021/10/27 06:32:33;;;;;;;8.80;2.85;;;16.60;93.60;;;;;;4155902;28;20439;-59
2021/10/27 06:34:59;;;;;;;9.27;3.63;;;16.70;93.60;;;;;;4189513;28;20049;-59
2021/10/27 06:37:39;;;;;;;11.57;2.97;;;16.60;93.60;;;;;;4192421;28;20102;-59
2021/10/27 06:48:00;;;;;;;7.05;2.55;;;16.60;93.60;;;;;;4174467;28;20041;-61
2021/10/27 06:50:22;;;;;;;9.50;3.33;;;16.60;93.50;;;;;;4174501;28;20139;-60
2021/10/27 06:52:46;;;;;;;9.00;3.15;;;16.60;93.60;;;;;;4175195;28;20454;-60
2021/10/27 06:55:08;;;;;;;9.25;3.22;;;16.60;93.60;;;;;;4174769;28;20155;-59
2021/10/27 06:57:30;;;;;;;9.85;3.15;;;16.70;93.60;;;;;;4175247;28;20049;-60
2021/10/27 06:59:56;;;;;;;6.82;3.08;;;16.60;93.60;;;;;;4175247;28;20487;-60
2021/10/27 07:02:48;;;;;;;6.63;3.47;;;16.70;93.60;;;;;;4175305;28;20059;-60
2021/10/27 07:15:46;;;;;;;7.90;3.80;;;16.60;93.50;;;;;;4158669;28;20068;-60
2021/10/27 07:18:08;;;;;;;7.90;4.88;;;16.60;93.50;;;;;;4173287;28;20053;-59
2021/10/27 07:20:30;;;;;;;10.27;3.97;;;16.60;93.50;;;;;;4175133;28;20450;-60
2021/10/27 07:22:55;;;;;;;7.10;4.40;;;16.60;93.50;;;;;;4175060;28;20049;-59
2021/10/27 07:25:18;;;;;;;5.80;4.47;;;16.60;93.50;;;;;;4175064;28;20052;-59
2021/10/27 07:27:39;;;;;;;8.95;4.97;;;16.60;93.50;;;;;;4174873;28;20096;-60
2021/10/27 07:30:02;;;;;;;9.18;5.28;;;16.60;93.60;;;;;;4174992;28;20065;-60
2021/10/27 07:32:25;;;;;;;12.88;4.57;;;16.60;93.50;;;;;;4174952;28;20419;-59
2021/10/27 07:34:52;;;;;;;9.38;5.18;;;16.60;93.60;;;;;;4174929;28;20505;-60
2021/10/27 07:40:07;;;;;;;5.65;4.90;;;16.60;93.50;;;;;;4158244;28;20049;-61
2021/10/27 07:42:30;;;;;;;7.97;4.97;;;16.60;93.60;;;;;;4158100;28;20057;-60
2021/10/27 07:44:52;;;;;;;11.45;5.95;;;16.60;93.50;;;;;;4157524;28;20056;-61
2021/10/27 07:47:15;;;;;;;10.93;5.13;;;16.60;93.50;;;;;;4158529;28;20103;-60
2021/10/27 07:49:37;;;;;;;8.65;5.28;;;16.60;93.50;;;;;;4158300;28;20083;-60
2021/10/27 07:51:59;;;;;;;8.55;4.75;;;16.60;93.50;;;;;;4171351;28;20086;-60
2021/10/27 07:54:22;;;;;;;6.85;5.28;;;16.60;93.50;;;;;;4158231;28;20127;-58
2021/10/27 07:56:47;;;;;;;9.45;5.30;;;16.70;93.60;;;;;;4157037;28;20068;-59
2021/10/27 07:59:10;;;;;;;10.02;5.60;;;16.60;93.60;;;;;;4157945;28;20080;-59
2021/10/27 08:01:32;;;;;;;7.50;5.47;;;16.70;93.60;;;;;;4158022;28;20053;-59
2021/10/27 08:03:55;;;;;;;6.00;5.38;;;16.70;93.60;;;;;;4157426;28;20487;-59
2021/10/27 08:06:17;;;;;;;7.90;4.90;;;16.70;93.60;;;;;;4158214;28;20419;-60
2021/10/27 08:08:39;;;;;;;8.23;5.03;;;16.60;93.60;;;;;;4172132;28;20060;-59
2021/10/27 08:11:02;;;;;;;9.18;5.07;;;16.60;93.60;;;;;;4158044;28;20050;-60
2021/10/27 08:13:25;;;;;;;8.30;5.00;;;16.70;93.80;;;;;;4156641;28;20045;-59
2021/10/27 08:15:47;;;;;;;7.97;5.68;;;16.70;93.70;;;;;;4158158;28;20049;-59
2021/10/27 08:18:12;;;;;;;8.65;5.30;;;16.70;93.70;;;;;;4170828;28;20411;-59
2021/10/27 08:20:34;;;;;;;6.75;5.93;;;16.60;93.60;;;;;;4174804;28;20053;-60
2021/10/27 08:22:59;;;;;;;10.05;5.68;;;16.60;93.50;;;;;;4174473;28;20048;-59
2021/10/27 08:25:28;;;;;;;10.43;5.65;;;16.70;93.60;;;;;;4174873;28;20063;-60
2021/10/27 08:27:50;;;;;;;6.68;6.07;;;16.70;93.60;;;;;;4174491;28;20068;-60
2021/10/27 08:30:17;;;;;;;8.80;5.95;;;16.60;94.00;;;;;;4174515;28;20414;-59
2021/10/27 08:32:49;;;;;;;7.50;6.60;;;16.70;94.10;;;;;;4174560;28;20469;-59
2021/10/27 08:35:13;;;;;;;7.68;5.50;;;16.70;93.70;;;;;;4174162;28;20131;-59
2021/10/27 08:37:36;;;;;;;6.18;5.63;;;16.60;93.60;;;;;;4172280;28;20055;-59
2021/10/27 08:39:58;;;;;;;9.45;6.38;;;16.60;93.70;;;;;;4174719;28;20045;-59
2021/10/27 08:42:21;;;;;;;6.22;5.63;;;16.70;93.70;;;;;;4174231;28;20053;-58
2021/10/27 08:44:45;;;;;;;7.63;5.53;;;16.70;93.60;;;;;;4174396;28;20037;-59
2021/10/27 08:47:10;;;;;;;9.45;6.10;;;16.70;93.70;;;;;;4173450;28;20131;-59
2021/10/27 08:49:33;;;;;;;9.50;6.00;;;16.60;93.60;;;;;;4174180;28;20111;-60
2021/10/27 08:51:58;;;;;;;6.90;5.97;;;16.70;93.80;;;;;;4174282;28;20103;-62
2021/10/27 08:54:22;;;;;;;7.40;5.97;;;16.70;93.70;;;;;;4173847;28;20119;-59
2021/10/27 08:56:45;;;;;;;9.35;5.13;;;16.70;93.70;;;;;;4174202;28;20083;-59
2021/10/27 08:59:11;;;;;;;7.90;5.35;;;16.70;93.80;;;;;;4173994;28;20053;-59
2021/10/27 09:01:42;;;;;;;9.25;5.63;;;16.60;93.70;;;;;;4174487;28;20057;-58
2021/10/27 09:07:05;;;;;;;10.23;5.72;;;16.70;93.80;;;;;;4173745;28;20295;-58
2021/10/27 09:09:37;;;;;;;;;;;16.70;93.80;;;;;;4190896;28;20094;-58
2021/10/27 09:15:27;;;;;;;6.57;4.40;;;16.70;93.60;;;;;;4136793;28;20111;-58
2021/10/27 09:34:47;;;;;;;7.03;4.85;;;16.70;93.70;;;;;;4191623;28;20055;-61
2021/10/27 09:37:37;;;;;;;5.97;4.45;;;16.70;93.60;;;;;;4193106;28;20739;-61
2021/10/27 10:04:01;;;;;;;9.20;3.90;;;16.70;93.50;;;;;;4175997;28;20047;-62
2021/10/27 10:05:00;;;;;;;8.68;3.55;;;16.70;93.50;;;;;;4175615;28;20095;-62
2021/10/27 10:07:22;;;;;;;7.18;3.72;;;16.70;93.50;;;;;;4174976;28;20049;-62
2021/10/27 10:09:46;;;;;;;3.25;2.90;;;16.70;93.50;;;;;;4176101;28;20041;-61
2021/10/27 10:12:08;;;;;;;5.97;3.13;;;16.70;93.50;;;;;;4188602;28;20045;-60
2021/10/27 10:14:32;;;;;;;4.57;3.13;;;16.70;93.50;;;;;;4182956;28;20499;-61
2021/10/27 10:16:58;;;;;;;6.10;3.35;;;16.70;93.90;;;;;;4173137;28;20487;-61
2021/10/27 10:19:22;;;;;;;7.63;3.50;;;16.70;93.50;;;;;;4173563;28;20615;-61
2021/10/27 10:21:46;;;;;;;5.32;3.38;;;16.70;93.50;;;;;;4173933;28;20045;-64
2021/10/27 10:24:41;;;;;;;5.70;2.80;;;16.80;93.40;;;;;;4173403;28;20053;-60
2021/10/27 10:27:10;;;;;;;3.85;2.65;;;16.70;93.50;;;;;;4123361;28;20912;-61
2021/10/27 10:29:59;;;;;;;8.27;3.08;;;16.70;93.40;;;;;;4124188;28;20511;-61
2021/10/27 10:32:40;;;;;;;4.60;2.40;;;16.70;93.50;;;;;;4146309;28;20049;-62
2021/10/27 10:35:12;;;;;;;4.68;2.80;;;16.80;93.50;;;;;;4159094;28;20447;-62
2021/10/27 10:37:38;;;;;;;5.07;2.80;;;16.80;93.90;;;;;;4175143;28;20055;-63
2021/10/27 10:40:07;;;;;;;5.50;2.78;;;16.80;93.50;;;;;;4191914;28;20445;-61
2021/10/27 10:45:35;;;;;;;7.32;2.60;;;16.70;93.60;;;;;;4192027;28;20483;-62
2021/10/27 10:59:24;;;;;;;4.68;2.50;;;16.70;93.50;;;;;;4158838;28;20749;-61
2021/10/27 11:02:09;;;;;;;4.88;2.67;;;16.70;93.50;;;;;;4159350;28;20103;-63
2021/10/27 11:24:27;;;;;;;4.72;2.65;;;16.80;93.30;;;;;;4191228;28;20083;-65
2021/10/27 11:27:13;;;;;;;5.60;2.28;;;16.70;93.70;;;;;;4191460;28;20048;-63
2021/10/27 11:37:41;;;;;;;5.10;1.92;;;16.80;93.30;;;;;;4191252;28;20067;-64
2021/10/27 11:40:10;;;;;;;4.70;2.15;;;16.80;93.30;;;;;;4191157;28;20045;-63
2021/10/27 11:42:44;;;;;;;5.47;1.83;;;16.80;93.30;;;;;;4191523;28;20080;-64
2021/10/27 11:45:21;;;;;;;3.47;1.92;;;16.90;93.30;;;;;;4177966;28;20048;-62
2021/10/27 11:47:47;;;;;;;8.63;2.67;;;16.80;93.20;;;;;;4174416;28;20045;-63
2021/10/27 11:50:12;;;;;;;4.38;1.95;;;16.80;93.20;;;;;;4174621;28;20049;-64
2021/10/27 11:52:37;;;;;;;1.88;1.58;;;16.80;93.20;;;;;;4174419;28;20495;-63
2021/10/27 11:55:00;;;;;;;4.57;2.00;;;16.80;93.20;;;;;;4174990;28;20049;-62
2021/10/27 11:57:22;;;;;;;7.63;2.63;;;16.80;93.20;;;;;;4177559;28;20135;-61
2021/10/27 11:59:47;;;;;;;7.15;2.20;;;16.90;93.20;;;;;;4191300;28;20052;-61
2021/10/27 12:02:09;;;;;;;5.43;2.00;;;16.80;93.10;;;;;;4191311;28;20044;-61
2021/10/27 12:04:36;;;;;;;7.07;2.10;;;16.80;93.10;;;;;;4190680;28;20491;-61
2021/10/27 12:07:09;;;;;;;3.72;2.10;;;16.80;93.10;;;;;;4175091;28;20049;-61
2021/10/27 12:09:44;;;;;;;4.75;2.38;;;16.80;93.10;;;;;;4174420;28;20090;-60
2021/10/27 12:15:10;;;;;;;5.47;1.90;;;16.80;93.00;;;;;;4172951;28;20419;-61
2021/10/27 12:17:34;;;;;;;7.60;2.38;;;16.90;93.00;;;;;;4157968;28;20053;-60
2021/10/27 12:19:58;;;;;;;4.20;1.50;;;16.90;93.00;;;;;;4158001;28;20080;-61
2021/10/27 12:22:22;;;;;;;5.63;2.13;;;16.90;93.00;;;;;;4158185;28;20045;-61
2021/10/27 12:24:43;;;;;;;3.90;1.85;;;16.90;93.00;;;;;;4171924;28;20052;-62
2021/10/27 12:27:21;;;;;;;4.32;2.00;;;16.90;93.00;;;;;;4174356;28;20411;-61
2021/10/27 12:29:43;;;;;;;2.65;1.58;;;16.90;93.00;;;;;;4174251;28;20419;-61
2021/10/27 12:32:09;;;;;;;4.60;2.28;;;16.90;93.00;;;;;;4174894;28;20476;-61
2021/10/27 12:34:31;;;;;;;4.07;1.77;;;16.90;93.00;;;;;;4174368;28;20049;-62
2021/10/27 12:36:58;;;;;;;4.47;1.83;;;16.90;93.00;;;;;;4174331;28;20078;-61
2021/10/27 12:39:24;;;;;;;3.13;1.50;;;16.90;93.00;;;;;;4173753;28;20055;-62
2021/10/27 12:42:01;;;;;;;2.63;1.77;;;16.90;93.00;;;;;;4174015;28;20114;-61
2021/10/27 12:44:25;;;;;;;3.80;1.77;;;16.90;93.00;;;;;;4174366;28;20045;-62
2021/10/27 12:46:48;;;;;;;3.55;1.58;;;16.90;93.00;;;;;;4174629;28;20084;-61
2021/10/27 12:49:19;;;;;;;3.22;2.08;;;16.90;92.90;;;;;;4173599;28;20064;-61
2021/10/27 12:51:42;;;;;;;7.15;2.08;;;16.90;92.90;;;;;;4177256;28;20063;-60
2021/10/27 12:54:06;;;;;;;2.28;1.42;;;16.90;92.90;;;;;;4177671;28;20053;-61
2021/10/27 12:56:31;;;;;;;5.72;2.05;;;16.90;92.90;;;;;;4177314;28;20518;-61
2021/10/27 12:59:02;;;;;;;3.95;2.00;;;16.90;92.90;;;;;;4177198;28;20052;-61
2021/10/27 13:01:31;;;;;;;6.03;1.75;;;16.90;92.90;;;;;;4176079;28;20052;-62
2021/10/27 13:04:08;;;;;;;4.90;1.43;;;16.90;92.90;;;;;;4175430;28;20053;-62
2021/10/27 13:12:11;;;;;;;3.80;1.70;;;16.90;92.90;;;;;;4160774;28;20062;-62
2021/10/27 13:14:44;;;;;;;3.05;1.75;;;16.90;93.20;;;;;;4159257;28;20128;-62
2021/10/27 13:22:37;;;;;;;6.90;2.25;;;16.90;92.90;;;;;;4160504;28;20046;-62
2021/10/27 13:30:28;;;;;;;5.57;2.47;;;16.90;92.80;;;;;;4160481;28;20081;-62
2021/10/27 13:32:53;;;;;;;5.53;2.28;;;16.90;92.80;;;;;;4169512;28;20456;-63
2021/10/27 13:35:18;;;;;;;4.60;1.70;;;16.90;92.80;;;;;;4193455;28;20048;-64
2021/10/27 13:37:40;;;;;;;4.45;2.42;;;16.90;92.70;;;;;;4192864;28;20395;-62
2021/10/27 13:40:04;;;;;;;5.28;2.33;;;16.90;92.70;;;;;;4193391;28;20056;-65
2021/10/27 13:42:30;;;;;;;3.03;1.70;;;16.90;92.70;;;;;;4193092;28;20048;-65
2021/10/27 13:45:03;;;;;;;4.07;1.75;;;16.90;92.80;;;;;;4193286;28;20418;-64
2021/10/27 13:47:33;;;;;;;3.75;2.10;;;16.90;92.80;;;;;;4193314;28;20049;-64
2021/10/27 14:06:11;;;;;;;4.85;2.25;;;16.90;92.60;;;;;;4170304;28;20044;-63
2021/10/27 14:08:42;;;;;;;2.75;1.90;;;16.90;92.60;;;;;;4159777;28;20049;-63
2021/10/27 14:11:12;;;;;;;3.65;2.00;;;16.90;92.70;;;;;;4159406;28;20061;-63
2021/10/27 14:13:43;;;;;;;3.13;1.88;;;16.80;92.60;;;;;;4159388;28;20045;-63
2021/10/27 14:18:55;;;;;;;5.53;2.15;;;16.80;92.60;;;;;;4175888;28;20059;-62
2021/10/27 14:40:31;;;;;;;3.15;1.50;;;16.80;92.60;;;;;;4158688;28;20099;-63
2021/10/27 14:50:26;;;;;;;2.30;1.17;;;16.80;92.70;;;;;;4177086;28;20053;-63
2021/10/27 15:15:31;;;;;;;2.58;1.52;;;19.00;88.10;;;;;;4175563;28;20557;-62
2021/10/27 15:20:51;;;;;;;3.00;1.33;;;21.40;75.90;;;;;;4174890;28;20630;-62
2021/10/27 15:23:16;;;;;;;3.08;1.30;;;21.30;76.00;;;;;;4158769;28;20057;-61
2021/10/27 15:26:02;;;;;;;3.20;1.13;;;21.10;76.40;;;;;;4158861;28;20053;-61
2021/10/27 15:28:41;;;;;;;4.22;1.33;;;21.00;76.90;;;;;;4158563;28;20496;-62
2021/10/27 15:31:27;;;;;;;3.30;1.27;;;20.80;77.90;;;;;;4173174;28;20044;-62
2021/10/27 15:36:43;;;;;;;1.70;1.30;;;20.50;79.70;;;;;;4174397;28;20135;-61
2021/10/27 15:42:01;;;;;;;2.80;1.38;;;20.30;80.60;;;;;;4174663;28;20045;-61
2021/10/27 15:44:34;;;;;;;2.67;1.25;;;20.40;80.70;;;;;;4174585;28;20499;-61
2021/10/27 15:52:21;;;;;;;2.47;1.10;;;20.50;80.10;;;;;;4174448;28;20060;-61
2021/10/27 15:54:44;;;;;;;2.88;1.70;;;20.40;80.30;;;;;;4174572;28;20049;-61
2021/10/27 15:57:07;;;;;;;2.05;1.40;;;20.30;80.60;;;;;;4174585;28;20051;-60
2021/10/27 15:59:30;;;;;;;1.30;0.88;;;20.20;81.20;;;;;;4173479;28;20059;-61
2021/10/27 16:01:52;;;;;;;2.83;1.08;;;20.10;81.80;;;;;;4174895;28;20556;-62
2021/10/27 16:04:16;;;;;;;1.65;1.50;;;20.10;82.30;;;;;;4175039;28;20049;-61